createdAt,value
2022-12-22T00:00:40.296Z,16.10
2022-12-22T00:03:45.694Z,16.63
2022-12-22T00:06:31.525Z,17.83
2022-12-22T00:09:17.821Z,16.30
2022-12-22T00:12:04.244Z,14.97
2022-12-22T00:14:52.255Z,17.03
2022-12-22T00:17:43.578Z,15.20
2022-12-22T00:20:33.227Z,15.70
2022-12-22T00:23:19.129Z,15.77
2022-12-22T00:26:05.827Z,15.63
2022-12-22T00:28:53.152Z,16.17
2022-12-22T00:31:41.540Z,16.47
2022-12-22T00:34:32.944Z,15.33
2022-12-22T00:37:19.273Z,15.70
2022-12-22T00:40:05.180Z,15.73
2022-12-22T00:42:51.133Z,15.10
2022-12-22T00:45:37.607Z,16.33
2022-12-22T00:48:28.001Z,17.50
2022-12-22T00:51:14.055Z,14.67
2022-12-22T00:54:00.324Z,16.10
2022-12-22T00:56:47.504Z,16.07
2022-12-22T00:59:33.462Z,14.57
2022-12-22T01:02:19.308Z,15.47
2022-12-22T01:05:07.074Z,12.83
2022-12-22T01:07:53.149Z,17.47
2022-12-22T01:10:40.883Z,16.47
2022-12-22T01:13:29.664Z,15.77
2022-12-22T01:16:15.656Z,14.80
2022-12-22T01:19:01.431Z,16.40
2022-12-22T01:21:48.833Z,15.17
2022-12-22T01:24:36.637Z,16.07
2022-12-22T01:27:23.254Z,15.40
2022-12-22T01:30:09.570Z,15.63
2022-12-22T01:32:55.640Z,16.33
2022-12-22T01:35:43.980Z,15.27
2022-12-22T01:38:31.436Z,15.33
2022-12-22T01:41:20.072Z,15.37
2022-12-22T01:44:05.951Z,15.43
2022-12-22T01:46:54.808Z,15.07
2022-12-22T01:49:45.363Z,15.40
2022-12-22T01:52:34.991Z,14.87
2022-12-22T01:55:26.873Z,14.77
2022-12-22T01:58:12.901Z,15.10
2022-12-22T02:01:00.744Z,13.33
2022-12-22T02:03:46.279Z,14.90
2022-12-22T02:06:40.256Z,13.50
2022-12-22T02:09:43.642Z,15.33
2022-12-22T02:12:41.539Z,13.57
2022-12-22T02:15:34.725Z,14.00
2022-12-22T02:18:31.056Z,14.00
2022-12-22T02:21:21.585Z,13.53
2022-12-22T02:24:25.083Z,13.90
2022-12-22T02:27:15.054Z,14.07
2022-12-22T02:30:07.766Z,15.10
2022-12-22T02:32:56.467Z,13.03
2022-12-22T02:35:42.844Z,14.53
2022-12-22T02:38:38.287Z,14.53
2022-12-22T02:41:35.621Z,13.90
2022-12-22T02:44:39.511Z,13.33
2022-12-22T02:47:32.186Z,13.73
2022-12-22T02:50:23.299Z,12.27
2022-12-22T02:53:10.706Z,12.73
2022-12-22T02:55:56.758Z,12.63
2022-12-22T02:58:44.149Z,13.63
2022-12-22T03:01:31.591Z,13.00
2022-12-22T03:04:17.612Z,11.70
2022-12-22T03:07:03.461Z,11.93
2022-12-22T03:09:49.766Z,13.97
2022-12-22T03:12:35.441Z,13.27
2022-12-22T03:15:21.347Z,12.73
2022-12-22T03:18:08.332Z,12.70
2022-12-22T03:20:54.441Z,14.33
2022-12-22T03:23:40.292Z,12.53
2022-12-22T03:26:08.812Z,13.57
2022-12-22T03:28:37.299Z,12.27
2022-12-22T03:31:07.766Z,14.40
2022-12-22T03:33:37.531Z,12.43
2022-12-22T03:36:07.339Z,13.60
2022-12-22T03:38:36.021Z,12.80
2022-12-22T03:41:05.150Z,13.83
2022-12-22T03:43:50.814Z,13.30
2022-12-22T03:46:32.062Z,12.00
2022-12-22T03:49:12.093Z,11.03
2022-12-22T03:51:43.630Z,11.50
2022-12-22T03:54:14.356Z,12.93
2022-12-22T03:56:43.768Z,12.37
2022-12-22T03:59:12.982Z,11.77
2022-12-22T04:01:43.870Z,11.83
2022-12-22T04:04:15.053Z,10.30
2022-12-22T04:06:44.600Z,11.37
2022-12-22T04:09:13.348Z,11.03
2022-12-22T04:11:59.297Z,12.07
2022-12-22T04:14:33.370Z,12.43
2022-12-22T04:17:03.241Z,12.27
2022-12-22T04:19:33.641Z,13.13
2022-12-22T04:22:02.638Z,10.87
2022-12-22T04:24:30.959Z,12.10
2022-12-22T04:27:01.255Z,11.57
2022-12-22T04:29:29.590Z,11.30
2022-12-22T04:31:58.320Z,11.57
2022-12-22T04:34:26.705Z,10.50
2022-12-22T04:37:03.189Z,11.67
2022-12-22T04:39:38.315Z,10.10
2022-12-22T04:42:07.006Z,9.17
2022-12-22T04:44:35.365Z,11.87
2022-12-22T04:47:04.241Z,11.13
2022-12-22T04:49:32.738Z,10.80
2022-12-22T04:52:02.883Z,10.87
2022-12-22T04:54:31.269Z,10.37
2022-12-22T04:56:59.770Z,10.33
2022-12-22T04:59:28.081Z,12.37
2022-12-22T05:01:56.885Z,9.60
2022-12-22T05:04:25.207Z,11.70
2022-12-22T05:06:53.883Z,12.10
2022-12-22T05:09:23.505Z,12.20
2022-12-22T05:11:52.084Z,12.13
2022-12-22T05:14:20.369Z,11.03
2022-12-22T05:16:49.030Z,12.07
2022-12-22T05:19:17.576Z,11.80
2022-12-22T05:21:46.557Z,10.90
2022-12-22T05:24:15.101Z,11.67
2022-12-22T05:26:45.120Z,11.23
2022-12-22T05:29:13.549Z,11.07
2022-12-22T05:31:47.182Z,13.27
2022-12-22T05:34:16.048Z,10.07
2022-12-22T05:36:44.795Z,12.13
2022-12-22T05:39:13.120Z,10.43
2022-12-22T05:41:41.736Z,12.33
2022-12-22T05:44:11.505Z,12.37
2022-12-22T05:46:40.370Z,11.40
2022-12-22T05:49:08.878Z,11.27
2022-12-22T05:51:37.682Z,12.30
2022-12-22T05:54:06.094Z,10.70
2022-12-22T05:56:34.782Z,11.03
2022-12-22T05:59:03.110Z,9.97
2022-12-22T06:01:33.267Z,10.70
2022-12-22T06:04:01.885Z,10.50
2022-12-22T06:06:30.706Z,11.97
2022-12-22T06:08:59.131Z,10.90
2022-12-22T06:11:27.906Z,11.80
2022-12-22T06:13:56.216Z,12.03
2022-12-22T06:16:25.214Z,11.93
2022-12-22T06:18:54.965Z,11.70
2022-12-22T06:21:23.741Z,10.37
2022-12-22T06:23:55.225Z,10.90
2022-12-22T06:26:24.203Z,12.27
2022-12-22T06:28:52.562Z,10.93
2022-12-22T06:31:21.294Z,10.70
2022-12-22T06:33:49.552Z,11.40
2022-12-22T06:36:19.599Z,11.97
2022-12-22T06:38:48.115Z,11.63
2022-12-22T06:41:37.851Z,11.33
2022-12-22T06:44:05.578Z,11.00
2022-12-22T06:46:34.719Z,12.63
2022-12-22T06:49:03.102Z,10.80
2022-12-22T06:51:33.178Z,10.73
2022-12-22T06:54:04.543Z,10.70
2022-12-22T06:56:33.227Z,12.43
2022-12-22T06:59:01.596Z,11.53
2022-12-22T07:01:30.598Z,11.33
2022-12-22T07:03:59.386Z,11.03
2022-12-22T07:06:28.204Z,10.83
2022-12-22T07:08:58.621Z,11.27
2022-12-22T07:11:27.208Z,11.60
2022-12-22T07:13:55.857Z,11.53
2022-12-22T07:16:24.594Z,10.43
2022-12-22T07:18:53.061Z,11.80
2022-12-22T07:21:21.721Z,11.80
2022-12-22T07:23:50.327Z,11.03
2022-12-22T07:26:20.490Z,12.00
2022-12-22T07:28:48.845Z,10.87
2022-12-22T07:31:18.770Z,10.50
2022-12-22T07:33:47.311Z,10.23
2022-12-22T07:36:18.143Z,11.50
2022-12-22T07:38:48.449Z,9.63
2022-12-22T07:41:37.391Z,10.23
2022-12-22T07:44:06.226Z,9.63
2022-12-22T07:46:37.933Z,10.90
2022-12-22T07:49:25.385Z,9.97
2022-12-22T07:51:54.172Z,10.73
2022-12-22T07:54:22.538Z,10.40
2022-12-22T07:56:52.647Z,10.23
2022-12-22T07:59:21.952Z,11.33
2022-12-22T08:01:50.674Z,9.97
2022-12-22T08:04:19.294Z,11.37
2022-12-22T08:06:48.238Z,10.50
2022-12-22T08:09:21.489Z,9.03
2022-12-22T08:11:51.850Z,10.97
2022-12-22T08:14:20.252Z,10.60
2022-12-22T08:16:49.046Z,10.23
2022-12-22T08:19:17.567Z,9.73
2022-12-22T08:21:52.507Z,10.90
2022-12-22T08:24:21.705Z,11.27
2022-12-22T08:26:56.819Z,10.00
2022-12-22T08:29:30.268Z,10.50
2022-12-22T08:31:59.242Z,10.87
2022-12-22T08:34:27.916Z,10.47
2022-12-22T08:36:59.258Z,10.93
2022-12-22T08:39:29.992Z,11.13
2022-12-22T08:42:01.131Z,10.87
2022-12-22T08:44:30.230Z,10.53
2022-12-22T08:47:00.581Z,10.63
2022-12-22T08:49:29.462Z,10.70
2022-12-22T08:51:58.104Z,10.27
2022-12-22T08:54:26.302Z,11.00
2022-12-22T08:56:54.967Z,10.87
2022-12-22T08:59:24.645Z,10.67
2022-12-22T09:01:53.539Z,10.43
2022-12-22T09:04:24.389Z,9.33
2022-12-22T09:06:53.887Z,9.87
2022-12-22T09:09:22.588Z,11.30
2022-12-22T09:11:51.689Z,9.97
2022-12-22T09:14:20.058Z,10.83
2022-12-22T09:16:50.551Z,9.37
2022-12-22T09:19:19.324Z,9.10
2022-12-22T09:21:47.974Z,8.73
2022-12-22T09:24:16.801Z,9.13
2022-12-22T09:26:45.732Z,9.30
2022-12-22T09:29:15.608Z,10.57
2022-12-22T09:31:45.422Z,9.50
2022-12-22T09:34:18.303Z,9.37
2022-12-22T09:36:48.469Z,9.00
2022-12-22T09:39:22.202Z,9.10
2022-12-22T09:41:56.552Z,9.37
2022-12-22T09:44:27.989Z,9.57
2022-12-22T09:46:59.245Z,8.87
2022-12-22T09:49:29.916Z,8.13
2022-12-22T09:52:01.580Z,8.93
2022-12-22T09:54:31.191Z,7.83
2022-12-22T09:57:00.341Z,8.60
2022-12-22T09:59:31.294Z,8.47
2022-12-22T10:02:14.946Z,7.77
2022-12-22T10:04:55.346Z,7.17
2022-12-22T10:07:30.943Z,8.47
2022-12-22T10:09:59.358Z,7.73
2022-12-22T10:12:27.949Z,7.27
2022-12-22T10:14:57.054Z,8.40
2022-12-22T10:17:28.341Z,8.20
2022-12-22T10:20:21.006Z,8.73
2022-12-22T10:22:52.621Z,9.07
2022-12-22T10:25:44.765Z,8.40
2022-12-22T10:28:23.519Z,8.03
2022-12-22T10:31:09.854Z,7.73
2022-12-22T10:33:45.905Z,7.63
2022-12-22T10:36:21.281Z,8.40
2022-12-22T10:39:02.588Z,8.27
2022-12-22T10:41:33.531Z,7.40
2022-12-22T10:44:06.284Z,7.47
2022-12-22T10:46:37.994Z,8.03
2022-12-22T10:49:16.904Z,6.67
2022-12-22T10:51:49.800Z,8.07
2022-12-22T10:54:30.343Z,7.80
2022-12-22T10:57:08.634Z,7.53
2022-12-22T10:59:49.294Z,7.50
2022-12-22T11:02:34.536Z,6.33
2022-12-22T11:05:07.354Z,7.77
2022-12-22T11:07:38.925Z,7.70
2022-12-22T11:10:19.569Z,7.27
2022-12-22T11:13:18.389Z,7.80
2022-12-22T11:15:52.195Z,8.13
2022-12-22T11:18:39.523Z,7.47
2022-12-22T11:21:17.343Z,8.33
2022-12-22T11:23:58.734Z,8.23
2022-12-22T11:26:40.412Z,7.53
2022-12-22T11:29:22.959Z,6.97
2022-12-22T11:32:05.796Z,6.83
2022-12-22T11:34:48.867Z,7.90
2022-12-22T11:37:30.664Z,7.90
2022-12-22T11:40:06.270Z,9.30
2022-12-22T11:42:50.160Z,8.43
2022-12-22T11:45:42.777Z,8.17
2022-12-22T11:48:38.729Z,9.10
2022-12-22T11:51:14.844Z,7.20
2022-12-22T11:54:00.845Z,8.83
2022-12-22T11:56:36.817Z,8.87
2022-12-22T11:59:27.330Z,7.77
2022-12-22T12:02:21.321Z,10.20
2022-12-22T12:05:26.208Z,8.40
2022-12-22T12:08:02.771Z,9.63
2022-12-22T12:10:36.482Z,8.27
2022-12-22T12:13:12.063Z,9.13
2022-12-22T12:15:47.365Z,9.43
2022-12-22T12:18:43.706Z,8.50
2022-12-22T12:21:27.686Z,9.53
2022-12-22T12:24:15.579Z,9.53
2022-12-22T12:26:53.422Z,8.37
2022-12-22T12:29:26.915Z,9.33
2022-12-22T12:32:00.772Z,9.60
2022-12-22T12:34:33.911Z,9.43
2022-12-22T12:37:08.035Z,10.33
2022-12-22T12:39:43.703Z,8.47
2022-12-22T12:42:26.987Z,8.00
2022-12-22T12:44:56.845Z,9.70
2022-12-22T12:47:28.704Z,10.10
2022-12-22T12:50:03.371Z,9.97
2022-12-22T12:53:18.063Z,8.57
2022-12-22T12:55:58.799Z,11.17
2022-12-22T12:58:50.392Z,10.37
2022-12-22T13:01:57.251Z,9.90
2022-12-22T13:05:04.835Z,9.60
2022-12-22T13:08:11.256Z,9.30
2022-12-22T13:10:43.369Z,10.13
2022-12-22T13:13:14.318Z,11.27
2022-12-22T13:15:45.287Z,10.57
2022-12-22T13:18:49.469Z,9.53
2022-12-22T13:24:25.144Z,9.97
2022-12-22T13:26:56.283Z,10.90
2022-12-22T13:29:29.392Z,11.07
2022-12-22T13:32:02.552Z,10.43
2022-12-22T13:35:20.081Z,11.93
2022-12-22T13:37:41.540Z,10.73
2022-12-22T13:40:16.455Z,11.77
2022-12-22T13:42:48.994Z,10.87
2022-12-22T13:45:36.354Z,10.53
2022-12-22T13:48:11.619Z,11.77
2022-12-22T13:50:46.519Z,12.90
2022-12-22T13:53:58.251Z,11.33
2022-12-22T13:56:15.250Z,12.30
2022-12-22T13:58:46.309Z,12.20
2022-12-22T14:01:20.070Z,10.97
2022-12-22T14:04:01.546Z,12.30
2022-12-22T14:06:35.796Z,11.87
2022-12-22T14:09:16.455Z,12.47
2022-12-22T14:11:52.093Z,11.70
2022-12-22T14:14:26.518Z,11.30
2022-12-22T14:16:58.283Z,11.93
2022-12-22T14:19:29.062Z,11.67
2022-12-22T14:22:05.563Z,11.27
2022-12-22T14:24:42.024Z,11.53
2022-12-22T14:27:19.949Z,11.20
2022-12-22T14:29:49.046Z,10.47
2022-12-22T14:32:40.041Z,11.13
2022-12-22T14:35:24.291Z,11.53
2022-12-22T14:37:55.855Z,11.77
2022-12-22T14:40:33.028Z,12.03
2022-12-22T14:43:03.742Z,10.90
2022-12-22T14:45:32.736Z,11.77
2022-12-22T14:48:01.155Z,13.23
2022-12-22T14:50:30.830Z,11.70
2022-12-22T14:53:03.331Z,12.20
2022-12-22T14:55:36.184Z,12.03
2022-12-22T14:58:11.739Z,13.07
2022-12-22T15:00:43.119Z,13.20
2022-12-22T15:03:32.311Z,12.17
2022-12-22T15:06:34.394Z,13.67
2022-12-22T15:12:20.102Z,13.00
2022-12-22T15:14:50.124Z,13.17
2022-12-22T15:17:23.565Z,13.33
2022-12-22T15:19:52.422Z,12.80
2022-12-22T15:22:21.062Z,14.07
2022-12-22T15:24:50.862Z,11.17
2022-12-22T15:27:19.439Z,13.17
2022-12-22T15:29:47.722Z,13.30
2022-12-22T15:32:16.404Z,12.60
2022-12-22T15:34:45.262Z,12.73
2022-12-22T15:37:14.249Z,12.43
2022-12-22T15:39:42.938Z,11.63
2022-12-22T15:42:14.600Z,11.97
2022-12-22T15:44:43.224Z,12.27
2022-12-22T15:47:13.211Z,12.03
2022-12-22T15:49:41.979Z,11.73
2022-12-22T15:52:14.733Z,11.80
2022-12-22T15:54:43.294Z,12.20
2022-12-22T15:57:15.215Z,11.60
2022-12-22T15:59:43.923Z,12.10
2022-12-22T16:02:13.665Z,12.33
2022-12-22T16:04:42.182Z,12.77
2022-12-22T16:07:12.646Z,11.67
2022-12-22T16:09:42.773Z,10.97
2022-12-22T16:12:16.846Z,11.13
2022-12-22T16:14:50.786Z,12.47
2022-12-22T16:17:21.272Z,11.63
2022-12-22T16:19:49.948Z,11.33
2022-12-22T16:22:21.198Z,10.33
2022-12-22T16:24:51.287Z,11.27
2022-12-22T16:27:21.452Z,10.70
2022-12-22T16:29:54.561Z,11.70
2022-12-22T16:32:26.716Z,10.83
2022-12-22T16:34:55.555Z,10.67
2022-12-22T16:37:24.172Z,11.00
2022-12-22T16:39:52.618Z,12.13
2022-12-22T16:45:18.574Z,10.73
2022-12-22T16:47:47.342Z,11.00
2022-12-22T16:50:21.817Z,12.20
2022-12-22T16:52:51.427Z,11.97
2022-12-22T16:55:21.612Z,11.63
2022-12-22T16:57:52.221Z,10.37
2022-12-22T17:00:22.430Z,10.13
2022-12-22T17:02:54.943Z,10.67
2022-12-22T17:05:28.938Z,11.40
2022-12-22T17:08:00.292Z,11.77
2022-12-22T17:10:29.005Z,10.37
2022-12-22T17:13:00.479Z,10.33
2022-12-22T17:15:28.780Z,11.33
2022-12-22T17:17:57.405Z,10.30
2022-12-22T17:20:29.083Z,10.97
2022-12-22T17:23:01.051Z,10.60
2022-12-22T17:25:32.357Z,9.90
2022-12-22T17:28:03.560Z,10.60
2022-12-22T17:30:32.116Z,10.77
2022-12-22T17:33:00.928Z,9.80
2022-12-22T17:35:33.313Z,10.50
2022-12-22T17:38:02.208Z,10.60
2022-12-22T17:40:31.491Z,10.70
2022-12-22T17:43:00.229Z,10.33
2022-12-22T17:45:29.868Z,9.67
2022-12-22T17:47:58.461Z,9.97
2022-12-22T17:50:26.872Z,11.00
2022-12-22T17:52:55.651Z,10.70
2022-12-22T17:55:55.542Z,10.47
2022-12-22T17:58:16.110Z,10.10
2022-12-22T18:00:46.270Z,10.07
2022-12-22T18:03:16.814Z,10.57
2022-12-22T18:05:48.635Z,10.37
2022-12-22T18:08:20.101Z,9.70
2022-12-22T18:10:49.634Z,10.03
2022-12-22T18:13:22.608Z,10.90
2022-12-22T18:15:53.261Z,9.30
2022-12-22T18:18:22.095Z,10.10
2022-12-22T18:21:06.280Z,10.63
2022-12-22T18:23:38.145Z,11.33
2022-12-22T18:26:08.693Z,10.77
2022-12-22T18:28:38.200Z,11.03
2022-12-22T18:31:08.025Z,10.23
2022-12-22T18:33:36.755Z,10.60
2022-12-22T18:36:05.570Z,11.00
2022-12-22T18:38:36.330Z,10.57
2022-12-22T18:41:04.765Z,11.37
2022-12-22T18:43:33.341Z,10.90
2022-12-22T18:46:01.609Z,10.20
2022-12-22T18:48:32.060Z,13.07
2022-12-22T18:51:00.925Z,11.10
2022-12-22T18:53:31.401Z,10.37
2022-12-22T18:56:00.493Z,11.77
2022-12-22T18:58:29.147Z,11.73
2022-12-22T19:00:58.120Z,12.13
2022-12-22T19:03:30.032Z,11.40
2022-12-22T19:06:00.262Z,11.93
2022-12-22T19:08:31.334Z,11.97
2022-12-22T19:11:04.731Z,12.10
2022-12-22T19:13:36.251Z,12.60
2022-12-22T19:16:05.344Z,12.17
2022-12-22T19:18:34.305Z,10.77
2022-12-22T19:21:03.984Z,11.27
2022-12-22T19:23:33.983Z,12.27
2022-12-22T19:26:08.497Z,12.70
2022-12-22T19:28:40.018Z,11.47
2022-12-22T19:31:10.352Z,12.33
2022-12-22T19:33:41.909Z,12.00
2022-12-22T19:36:17.123Z,11.67
2022-12-22T19:38:50.558Z,13.00
2022-12-22T19:41:30.476Z,12.80
2022-12-22T19:43:59.719Z,11.67
2022-12-22T19:46:32.508Z,12.60
2022-12-22T19:49:01.820Z,11.93
2022-12-22T19:51:32.474Z,11.40
2022-12-22T19:54:01.330Z,12.30
2022-12-22T19:56:30.888Z,11.53
2022-12-22T19:59:01.864Z,11.37
2022-12-22T20:01:30.788Z,11.23
2022-12-22T20:03:59.931Z,12.00
2022-12-22T20:06:28.396Z,11.97
2022-12-22T20:09:01.709Z,11.97
2022-12-22T20:11:30.477Z,11.97
2022-12-22T20:14:00.102Z,11.03
2022-12-22T20:16:28.618Z,11.07
2022-12-22T20:18:57.270Z,10.87
2022-12-22T20:21:29.439Z,12.60
2022-12-22T20:24:01.833Z,13.07
2022-12-22T20:26:30.264Z,10.43
2022-12-22T20:28:59.168Z,12.13
2022-12-22T20:31:27.838Z,12.87
2022-12-22T20:33:56.590Z,14.27
2022-12-22T20:36:28.738Z,13.40
2022-12-22T20:39:00.554Z,13.90
2022-12-22T20:41:29.279Z,12.00
2022-12-22T20:43:58.253Z,13.03
2022-12-22T20:46:29.789Z,12.93
2022-12-22T20:49:00.450Z,13.50
2022-12-22T20:51:31.732Z,13.20
2022-12-22T20:54:03.005Z,13.33
2022-12-22T20:56:33.381Z,12.57
2022-12-22T20:59:12.817Z,12.90
2022-12-22T21:01:41.400Z,13.33
2022-12-22T21:04:10.587Z,14.07
2022-12-22T21:06:40.464Z,14.20
2022-12-22T21:09:13.684Z,14.07
2022-12-22T21:11:42.299Z,13.27
2022-12-22T21:14:11.614Z,13.60
2022-12-22T21:16:40.944Z,13.33
2022-12-22T21:19:09.943Z,13.80
2022-12-22T21:21:38.350Z,13.10
2022-12-22T21:24:07.949Z,11.20
2022-12-22T21:26:43.068Z,11.47
2022-12-22T21:29:17.513Z,10.83
2022-12-22T21:31:46.193Z,10.53
2022-12-22T21:34:15.096Z,9.50
2022-12-22T21:36:46.670Z,9.70
2022-12-22T21:39:23.756Z,8.20
2022-12-22T21:42:04.718Z,8.98
2022-12-22T21:44:36.078Z,9.27
2022-12-22T21:47:05.028Z,9.13
2022-12-22T21:49:35.259Z,8.50
2022-12-22T21:52:04.475Z,8.05
2022-12-22T21:54:33.333Z,8.55
2022-12-22T21:57:03.402Z,6.82
2022-12-22T21:59:32.689Z,6.67
2022-12-22T22:02:02.129Z,6.43
2022-12-22T22:04:31.201Z,7.97
2022-12-22T22:07:00.048Z,6.77
2022-12-22T22:09:29.819Z,7.77
2022-12-22T22:12:15.764Z,7.73
2022-12-22T22:14:47.047Z,8.35
2022-12-22T22:17:16.102Z,8.10
2022-12-22T22:19:45.328Z,8.17
2022-12-22T22:22:14.390Z,8.30
2022-12-22T22:24:43.840Z,8.13
2022-12-22T22:27:12.635Z,6.72
2022-12-22T22:29:41.563Z,7.83
2022-12-22T22:32:11.545Z,7.05
2022-12-22T22:34:40.716Z,7.93
2022-12-22T22:37:09.405Z,7.35
2022-12-22T22:39:38.236Z,7.32
2022-12-22T22:42:06.783Z,7.95
2022-12-22T22:44:35.966Z,8.13
2022-12-22T22:47:04.667Z,7.77
2022-12-22T22:49:34.944Z,7.57
2022-12-22T22:52:03.452Z,6.63
2022-12-22T22:54:32.823Z,7.63
2022-12-22T22:57:01.833Z,6.73
2022-12-22T22:59:30.707Z,7.67
2022-12-22T23:01:59.259Z,6.50
2022-12-22T23:04:28.357Z,6.77
2022-12-22T23:06:58.215Z,6.40
2022-12-22T23:09:27.080Z,6.70
2022-12-22T23:11:55.919Z,6.63
2022-12-22T23:14:26.759Z,6.27
2022-12-22T23:16:55.363Z,6.38
2022-12-22T23:19:25.043Z,5.87
2022-12-22T23:21:53.311Z,6.30
2022-12-22T23:24:24.122Z,6.00
2022-12-22T23:26:53.460Z,6.40
2022-12-22T23:29:22.663Z,6.65
2022-12-22T23:31:51.711Z,6.03
2022-12-22T23:34:21.069Z,6.35
2022-12-22T23:36:50.045Z,5.20
2022-12-22T23:39:18.697Z,5.83
2022-12-22T23:41:48.415Z,6.63
2022-12-22T23:44:17.254Z,6.30
2022-12-22T23:46:45.788Z,6.25
2022-12-22T23:49:14.682Z,6.05
2022-12-22T23:51:43.090Z,5.30
2022-12-22T23:54:11.894Z,5.68
2022-12-22T23:56:40.392Z,6.00
2022-12-22T23:59:10.656Z,5.97
